Terminal Aerodrome Forecast
Issued by NWS Denver/Boulder, CO

Home | Current Version | Previous Version | Text Only | Print | Product List | Glossary On
Versions: 1 2 3 4 5 6 7 8 9 10 11 12 13 14 15 16 17 18 19 20 21 22 23 24 25 26 27 28 29 30 31 32 33 34 35 36 37 38 39 40 41 42 43 44 45 46 47 48 49 50
000
FTUS45 KBOU 280540
TAFDEN
TAF
KDEN 280540Z 2806/2912 28008KT P6SM SCT070 BKN110
     FM280900 34006KT P6SM VCFG SCT025 BKN045 OVC060
     FM281100 30006KT 1SM BR BKN008 OVC020
      TEMPO 2811/2815 1/2SM FG VV004
     FM281600 35007KT P6SM VCSH BKN018 OVC030
     FM281900 01009KT 6SM -SHRA SCT010 OVC018
      TEMPO 2820/2824 03011KT 3SM -SHRA BR OVC010
     FM290000 06013KT 1SM RA BR BKN005 OVC008
     FM290600 02014G25KT 3/4SM RA BR OVC005 PROB30 2909/2912 1/4SM
      RASN FZFG VV003=

USA.gov is the U.S. government's official web portal to all federal, state and local government web resources and services.